San Juan Enterprise — WDD9563 — position and weather

sailwx.info

Track history (hours):
 
Tides and Currents Weather Stations Pressure Air Temp Water Temp Dewpoint Dewpoint Depression Visibility Wind Speed Wind Dir Waves Ship Positions

San Juan Enterprise

More information available from US FCC via Universal Licensing System and Coast Guard Vessel Documentation Center.

Last reported at 2014-Jul-24 12:32 UTC. Time now 2014-Jul-24 12:57 UTC.
Position N 48°31' W 122°36'.

Length 30 m.

MMSI: 367313160.

Date/timePositionNaut miles runAvg speedWind from/ knotsBaromVisibWave heightAir tempDewpointWater temp
2014-Jul-24 12:32N 48°31' W 122°36'0 0.0
2014-Jul-24 11:26N 48°31' W 122°36'0 0.0
2014-Jul-24 10:32N 48°31' W 122°36'0 0.0
2014-Jul-24 09:32N 48°31' W 122°36'0 0.0
2014-Jul-24 08:32N 48°31' W 122°36'0 0.0
2014-Jul-24 07:32N 48°31' W 122°36'0 0.0
2014-Jul-24 06:32N 48°31' W 122°36'0 0.0
2014-Jul-24 05:26N 48°31' W 122°36'0 0.0
2014-Jul-24 04:32N 48°31' W 122°36'0 0.0
2014-Jul-24 03:32N 48°31' W 122°36'0 0.0
2014-Jul-24 02:26N 48°31' W 122°36'0 0.0
2014-Jul-24 01:32N 48°31' W 122°36'0 0.0
2014-Jul-24 00:32N 48°31' W 122°36'0 0.0
2014-Jul-23 23:26N 48°31' W 122°36'0 0.0
2014-Jul-23 22:32N 48°31' W 122°36'0 0.0
2014-Jul-23 21:32N 48°31' W 122°36'1 0.6
2014-Jul-23 20:33N 48°31' W 122°36'1 0.8
2014-Jul-23 19:33N 48°31' W 122°37'9 8.5
2014-Jul-23 18:33N 48°35' W 122°48'0 0.5
2014-Jul-23 17:33N 48°35' W 122°49'1 1.2
2014-Jul-23 16:33N 48°36' W 122°49'5 4.6
2014-Jul-23 15:33N 48°33' W 122°44'5 5.2
2014-Jul-23 14:32N 48°31' W 122°36'0 0.0
2014-Jul-23 13:32N 48°31' W 122°36'0 0.0
2014-Jul-23 12:32N 48°31' W 122°36'0 0.0
2014-Jul-23 11:32N 48°31' W 122°36'0 0.0
2014-Jul-23 10:32N 48°31' W 122°36'0 0.0
2014-Jul-23 09:26N 48°31' W 122°36'0 0.0
2014-Jul-23 08:32N 48°31' W 122°36'0 0.0
2014-Jul-23 07:32N 48°31' W 122°36'0 0.0
2014-Jul-23 06:32N 48°31' W 122°36'0 0.0
2014-Jul-23 05:32N 48°31' W 122°36'0 0.0
2014-Jul-23 04:32N 48°31' W 122°36'0 0.0
2014-Jul-23 03:20N 48°31' W 122°36'2 2.5
2014-Jul-23 02:32N 48°31' W 122°39'6 5.6
2014-Jul-23 01:24N 48°25' W 122°36'3 0.9
2014-Jul-22 22:32N 48°25' W 122°40'6 6.3
2014-Jul-22 21:33N 48°31' W 122°39'1 1.5
2014-Jul-22 20:34N 48°31' W 122°37'3 3.3
2014-Jul-22 19:34N 48°31' W 122°42'8 8.2
2014-Jul-22 18:34N 48°34' W 122°53'5 5.1
2014-Jul-22 17:34N 48°32' W 122°60'0 0.0
2014-Jul-22 16:33N 48°32' W 122°60'5 5.4
2014-Jul-22 15:34N 48°34' W 122°53'8 8.0
2014-Jul-22 14:33N 48°32' W 122°41'3 3.3
2014-Jul-22 13:32N 48°31' W 122°36'0 0.0
2014-Jul-22 12:29N 48°31' W 122°36'0 0.0
2014-Jul-22 11:32N 48°31' W 122°36'0 0.0
2014-Jul-22 10:32N 48°31' W 122°36'0 0.0
2014-Jul-22 09:29N 48°31' W 122°36'0 0.0
2014-Jul-22 08:29N 48°31' W 122°36'0 0.0
2014-Jul-22 07:29N 48°31' W 122°36'0 0.0
2014-Jul-22 06:29N 48°31' W 122°36'0 0.0
2014-Jul-22 05:29N 48°31' W 122°36'0 0.0
2014-Jul-22 04:29N 48°31' W 122°36'0 0.0
2014-Jul-22 03:29N 48°31' W 122°36'0 0.0
2014-Jul-22 02:32N 48°31' W 122°36'3 2.7
2014-Jul-22 01:33N 48°31' W 122°40'7 6.2
2014-Jul-22 00:28N 48°25' W 122°36'9 9.0
2014-Jul-21 23:26N 48°16' W 122°32'10 8.4
2014-Jul-21 22:11N 48°06' W 122°27'6 9.5
2014-Jul-21 21:32N 48°02' W 122°20'4 8.9
2014-Jul-21 21:07N 47°60' W 122°16'2 3.0
2014-Jul-21 20:34N 48°00' W 122°13'0 0.0
2014-Jul-21 20:18N 48°00' W 122°13'4 5.4
2014-Jul-21 19:32N 48°01' W 122°19'0 0.1
2014-Jul-21 19:05N 48°01' W 122°19'0 0.9
2014-Jul-21 18:33N 48°01' W 122°19'4 3.6
2014-Jul-21 17:33N 48°00' W 122°13'4 4.0
2014-Jul-21 16:32N 48°01' W 122°19'4 4.3
2014-Jul-21 15:33N 47°59' W 122°14'1 0.8
2014-Jul-21 14:32N 48°00' W 122°13'0 0.0
2014-Jul-21 13:29N 48°00' W 122°13'0 0.0
2014-Jul-21 12:32N 48°00' W 122°13'0 0.0
2014-Jul-21 11:29N 48°00' W 122°13'0 0.0
2014-Jul-21 10:29N 48°00' W 122°13'0 0.0
2014-Jul-21 09:32N 48°00' W 122°13'0 0.0
2014-Jul-21 08:29N 48°00' W 122°13'0 0.0
2014-Jul-21 07:26N 48°00' W 122°13'0 0.0
2014-Jul-21 06:32N 48°00' W 122°13'0 0.0
2014-Jul-21 05:32N 48°00' W 122°13'0 0.0
2014-Jul-21 04:32N 48°00' W 122°13'0 0.0
2014-Jul-21 03:29N 48°00' W 122°13'0 0.0
2014-Jul-21 02:32N 48°00' W 122°13'0 0.0
2014-Jul-21 01:29N 48°00' W 122°13'0 0.0
2014-Jul-21 00:29N 48°00' W 122°13'0 0.0
2014-Jul-20 23:32N 48°00' W 122°13'0 0.0
2014-Jul-20 22:32N 48°00' W 122°13'0 0.0
2014-Jul-20 21:32N 48°00' W 122°13'0 0.0
2014-Jul-20 20:32N 48°00' W 122°13'0 0.0
2014-Jul-20 19:32N 48°00' W 122°13'0 0.0
2014-Jul-20 18:32N 48°00' W 122°13'0 0.0
2014-Jul-20 17:32N 48°00' W 122°13'0 0.0
2014-Jul-20 16:32N 48°00' W 122°13'0 0.0
2014-Jul-20 15:32N 48°00' W 122°13'0 0.0
2014-Jul-20 14:26N 48°00' W 122°13'0 0.0
2014-Jul-20 13:32N 48°00' W 122°13'0 0.0
2014-Jul-20 12:32N 48°00' W 122°13'0 0.0
2014-Jul-20 11:29N 48°00' W 122°13'0 0.0
2014-Jul-20 10:29N 48°00' W 122°13'0 0.0
2014-Jul-20 09:32N 48°00' W 122°13'0 0.0
2014-Jul-20 08:29N 48°00' W 122°13'0 0.0
2014-Jul-20 07:32N 48°00' W 122°13'0 0.0
2014-Jul-20 06:32N 48°00' W 122°13'0 0.0
2014-Jul-20 05:32N 48°00' W 122°13'0 0.0
2014-Jul-20 04:32N 48°00' W 122°13'0 0.0
2014-Jul-20 03:29N 48°00' W 122°13'0 0.0
2014-Jul-20 02:32N 48°00' W 122°13'0 0.0
2014-Jul-20 01:29N 48°00' W 122°13'0 0.0
2014-Jul-20 00:29N 48°00' W 122°13'0 0.0
2014-Jul-19 23:32N 48°00' W 122°13'0 0.0
2014-Jul-19 22:29N 48°00' W 122°13'0 0.0
2014-Jul-19 21:32N 48°00' W 122°13'0 0.0
2014-Jul-19 20:29N 48°00' W 122°13'0 0.0
2014-Jul-19 19:26N 48°00' W 122°13'0 0.0
2014-Jul-19 18:32N 48°00' W 122°13'0 0.0
2014-Jul-19 17:32N 48°00' W 122°13'0 0.0
2014-Jul-19 16:32N 48°00' W 122°13'0 0.0
2014-Jul-19 15:32N 48°00' W 122°13'0 0.0
2014-Jul-19 14:32N 48°00' W 122°13'0 0.0
2014-Jul-19 13:29N 48°00' W 122°13'0 0.0
2014-Jul-19 12:29N 48°00' W 122°13'0 0.0
2014-Jul-19 11:29N 48°00' W 122°13'0 0.0
2014-Jul-19 10:32N 48°00' W 122°13'0 0.0
2014-Jul-19 09:32N 48°00' W 122°13'0 0.0
2014-Jul-19 08:32N 48°00' W 122°13'0 0.0
2014-Jul-19 07:32N 48°00' W 122°13'0 0.0
2014-Jul-19 06:32N 48°00' W 122°13'0 0.0
2014-Jul-19 05:32N 48°00' W 122°13'0 0.0
2014-Jul-19 04:32N 48°00' W 122°13'0 0.0
2014-Jul-19 03:32N 48°00' W 122°13'0 0.0
2014-Jul-19 02:32N 48°00' W 122°13'0 0.1
2014-Jul-19 01:34N 48°00' W 122°13'4 4.1
2014-Jul-19 00:34N 48°01' W 122°19'3 3.0
2014-Jul-18 23:34N 47°60' W 122°16'2 1.7
2014-Jul-18 22:34N 48°00' W 122°13'0 0.4
2014-Jul-18 21:33N 47°60' W 122°13'4 4.1
2014-Jul-18 20:33N 48°01' W 122°19'0 0.5
2014-Jul-18 19:34N 48°01' W 122°19'4 3.7
2014-Jul-18 18:34N 48°00' W 122°13'0 0.0
2014-Jul-18 17:34N 48°00' W 122°13'4 4.0
2014-Jul-18 16:32N 48°01' W 122°19'3 3.1
2014-Jul-18 15:34N 47°60' W 122°15'1 1.4
2014-Jul-18 14:33N 48°00' W 122°13'0 0.0
2014-Jul-18 13:33N 48°00' W 122°13'0 0.0
2014-Jul-18 12:33N 48°00' W 122°13'0 0.0
2014-Jul-18 11:33N 48°00' W 122°13'0 0.0
2014-Jul-18 10:33N 48°00' W 122°13'0 0.0
2014-Jul-18 09:33N 48°00' W 122°13'0 0.0
2014-Jul-18 08:33N 48°00' W 122°13'0 0.0
2014-Jul-18 07:27N 48°00' W 122°13'0 0.0
2014-Jul-18 06:33N 48°00' W 122°13'4 4.0
2014-Jul-18 05:33N 47°58' W 122°18'5 8.8
2014-Jul-18 04:56N 47°53' W 122°23'4 9.4
2014-Jul-18 04:33N 47°51' W 122°27'1 6.6
2014-Jul-18 04:22N 47°50' W 122°28'0 0.4
2014-Jul-18 03:33N 47°50' W 122°29'0 8.8
2014-Jul-18 03:32N 47°50' W 122°29'9 9.0
2014-Jul-18 02:33N 47°56' W 122°20'6 5.6
2014-Jul-18 01:33N 48°00' W 122°13'4 4.1
2014-Jul-18 00:33N 48°01' W 122°19'0 0.0
2014-Jul-17 23:27N 48°01' W 122°19'4 4.5
2014-Jul-17 22:33N 48°00' W 122°13'1 0.8
2014-Jul-17 21:33N 47°59' W 122°14'4 4.2
2014-Jul-17 20:33N 48°01' W 122°19'4 4.1
2014-Jul-17 19:33N 48°00' W 122°13'0 0.0
2014-Jul-17 18:33N 48°00' W 122°13'2 2.0
2014-Jul-17 17:33N 48°00' W 122°16'2 2.1
2014-Jul-17 16:29N 48°01' W 122°19'2 2.1
2014-Jul-17 15:33N 48°00' W 122°17'2 2.2
2014-Jul-17 14:32N 48°00' W 122°13'0 0.0
2014-Jul-17 13:29N 48°00' W 122°13'0 0.0
2014-Jul-17 12:32N 48°00' W 122°13'0 0.0
2014-Jul-17 11:29N 48°00' W 122°13'0 0.0
2014-Jul-17 10:32N 48°00' W 122°13'0 0.0
2014-Jul-17 09:32N 48°00' W 122°13'0 0.0
2014-Jul-17 08:23N 48°00' W 122°13'0 0.0
2014-Jul-17 07:29N 48°00' W 122°13'0 0.0
2014-Jul-17 06:32N 48°00' W 122°13'0 0.0
2014-Jul-17 05:32N 48°00' W 122°13'0 0.0
2014-Jul-17 04:32N 48°00' W 122°13'0 0.0
2014-Jul-17 03:32N 48°00' W 122°13'0 0.0
2014-Jul-17 02:32N 48°00' W 122°13'0 0.1
2014-Jul-17 01:33N 48°00' W 122°13'4 3.7
2014-Jul-17 00:27N 48°01' W 122°19'4 4.1
2014-Jul-16 23:33N 47°59' W 122°14'1 1.3
2014-Jul-16 22:33N 48°00' W 122°13'0 0.0
2014-Jul-16 21:33N 48°00' W 122°13'4 4.1
2014-Jul-16 20:33N 48°01' W 122°19'3 2.5
2014-Jul-16 19:32N 47°60' W 122°16'2 2.0
2014-Jul-16 18:33N 48°00' W 122°13'0 0.0
2014-Jul-16 17:33N 48°00' W 122°13'4 3.5
2014-Jul-16 16:33N 48°01' W 122°19'3 2.6
2014-Jul-16 15:33N 47°59' W 122°15'1 1.3
2014-Jul-16 14:28N 48°00' W 122°13'0 0.0
2014-Jul-16 13:28N 48°00' W 122°13'0 0.0
2014-Jul-16 12:28N 48°00' W 122°13'0 0.0
2014-Jul-16 11:22N 48°00' W 122°13'0 0.0
2014-Jul-16 08:22N 48°00' W 122°13'0 0.0
2014-Jul-16 07:28N 48°00' W 122°13'0 0.0
2014-Jul-16 06:28N 48°00' W 122°13'2 2.3
2014-Jul-16 05:32N 48°00' W 122°17'1110.3
2014-Jul-16 04:25N 48°07' W 122°30'8 9.6
2014-Jul-16 03:33N 48°16' W 122°32'9 6.9
2014-Jul-16 02:19N 48°24' W 122°33'5 2.7
2014-Jul-16 00:33N 48°25' W 122°40'6 5.8
2014-Jul-15 23:33N 48°31' W 122°39'2 1.7
2014-Jul-15 22:33N 48°31' W 122°36'1 0.7
2014-Jul-15 21:33N 48°31' W 122°37'1 1.3
2014-Jul-15 20:33N 48°32' W 122°39'8 8.3
2014-Jul-15 19:33N 48°36' W 122°49'0 0.0
2014-Jul-15 18:33N 48°36' W 122°49'0 0.0
2014-Jul-15 17:33N 48°36' W 122°49'0 0.0
2014-Jul-15 16:33N 48°36' W 122°49'7 6.5
2014-Jul-15 15:33N 48°32' W 122°41'3 3.3
2014-Jul-15 14:33N 48°31' W 122°36'0 0.0
2014-Jul-15 13:33N 48°31' W 122°36'0 0.0
2014-Jul-15 12:33N 48°31' W 122°36'0 0.0
2014-Jul-15 11:33N 48°31' W 122°36'0 0.0
2014-Jul-15 10:33N 48°31' W 122°36'0 0.0
2014-Jul-15 09:33N 48°31' W 122°36'0 0.0
2014-Jul-15 08:34N 48°31' W 122°36'0 0.0
2014-Jul-15 07:34N 48°31' W 122°36'0 0.0
2014-Jul-15 06:33N 48°31' W 122°36'0 0.0
2014-Jul-15 05:34N 48°31' W 122°36'0 0.0
2014-Jul-15 04:33N 48°31' W 122°36'0 0.0
2014-Jul-15 03:33N 48°31' W 122°36'0 0.0
2014-Jul-15 02:33N 48°31' W 122°36'0 0.0
2014-Jul-15 01:33N 48°31' W 122°36'7 7.3
2014-Jul-15 00:33N 48°31' W 122°47'0 0.1
2014-Jul-14 23:34N 48°31' W 122°47'0 0.0
2014-Jul-14 22:33N 48°31' W 122°47'5 4.9
2014-Jul-14 21:33N 48°31' W 122°40'3 2.6
2014-Jul-14 20:33N 48°31' W 122°36'0 0.0
2014-Jul-14 19:34N 48°31' W 122°36'7 7.2
2014-Jul-14 18:34N 48°34' W 122°46'3 2.7
2014-Jul-14 17:34N 48°36' W 122°49'0 0.0
2014-Jul-14 16:33N 48°36' W 122°49'2 1.8
2014-Jul-14 15:33N 48°35' W 122°47'8 7.6
2014-Jul-14 14:33N 48°31' W 122°37'0 0.4
2014-Jul-14 13:32N 48°31' W 122°36'0 0.0
2014-Jul-14 12:32N 48°31' W 122°36'  
Track history (hours):
 
Tides and Currents Weather Stations Pressure Air Temp Water Temp Dewpoint Dewpoint Depression Visibility Wind Speed Wind Dir Waves Ship Positions

San Juan Enterprise

More information available from US FCC via Universal Licensing System and Coast Guard Vessel Documentation Center.

Last reported at 2014-Jul-24 12:32 UTC. Time now 2014-Jul-24 12:57 UTC.
Position N 48°31' W 122°36'.

Length 30 m.

MMSI: 367313160.

Date/timePositionNaut miles runAvg speedWind from/ knotsBaromVisibWave heightAir tempDewpointWater temp
2014-Jul-24 12:32N 48°31' W 122°36'0 0.0
2014-Jul-24 11:26N 48°31' W 122°36'0 0.0
2014-Jul-24 10:32N 48°31' W 122°36'0 0.0
2014-Jul-24 09:32N 48°31' W 122°36'0 0.0
2014-Jul-24 08:32N 48°31' W 122°36'0 0.0
2014-Jul-24 07:32N 48°31' W 122°36'0 0.0
2014-Jul-24 06:32N 48°31' W 122°36'0 0.0
2014-Jul-24 05:26N 48°31' W 122°36'0 0.0
2014-Jul-24 04:32N 48°31' W 122°36'0 0.0
2014-Jul-24 03:32N 48°31' W 122°36'0 0.0
2014-Jul-24 02:26N 48°31' W 122°36'0 0.0
2014-Jul-24 01:32N 48°31' W 122°36'0 0.0
2014-Jul-24 00:32N 48°31' W 122°36'0 0.0
2014-Jul-23 23:26N 48°31' W 122°36'0 0.0
2014-Jul-23 22:32N 48°31' W 122°36'0 0.0
2014-Jul-23 21:32N 48°31' W 122°36'1 0.6
2014-Jul-23 20:33N 48°31' W 122°36'1 0.8
2014-Jul-23 19:33N 48°31' W 122°37'9 8.5
2014-Jul-23 18:33N 48°35' W 122°48'0 0.5
2014-Jul-23 17:33N 48°35' W 122°49'1 1.2
2014-Jul-23 16:33N 48°36' W 122°49'5 4.6
2014-Jul-23 15:33N 48°33' W 122°44'5 5.2
2014-Jul-23 14:32N 48°31' W 122°36'0 0.0
2014-Jul-23 13:32N 48°31' W 122°36'0 0.0
2014-Jul-23 12:32N 48°31' W 122°36'0 0.0
2014-Jul-23 11:32N 48°31' W 122°36'0 0.0
2014-Jul-23 10:32N 48°31' W 122°36'0 0.0
2014-Jul-23 09:26N 48°31' W 122°36'0 0.0
2014-Jul-23 08:32N 48°31' W 122°36'0 0.0
2014-Jul-23 07:32N 48°31' W 122°36'0 0.0
2014-Jul-23 06:32N 48°31' W 122°36'0 0.0
2014-Jul-23 05:32N 48°31' W 122°36'0 0.0
2014-Jul-23 04:32N 48°31' W 122°36'0 0.0
2014-Jul-23 03:20N 48°31' W 122°36'2 2.5
2014-Jul-23 02:32N 48°31' W 122°39'6 5.6
2014-Jul-23 01:24N 48°25' W 122°36'3 0.9
2014-Jul-22 22:32N 48°25' W 122°40'6 6.3
2014-Jul-22 21:33N 48°31' W 122°39'1 1.5
2014-Jul-22 20:34N 48°31' W 122°37'3 3.3
2014-Jul-22 19:34N 48°31' W 122°42'8 8.2
2014-Jul-22 18:34N 48°34' W 122°53'5 5.1
2014-Jul-22 17:34N 48°32' W 122°60'0 0.0
2014-Jul-22 16:33N 48°32' W 122°60'5 5.4
2014-Jul-22 15:34N 48°34' W 122°53'8 8.0
2014-Jul-22 14:33N 48°32' W 122°41'3 3.3
2014-Jul-22 13:32N 48°31' W 122°36'0 0.0
2014-Jul-22 12:29N 48°31' W 122°36'0 0.0
2014-Jul-22 11:32N 48°31' W 122°36'0 0.0
2014-Jul-22 10:32N 48°31' W 122°36'0 0.0
2014-Jul-22 09:29N 48°31' W 122°36'0 0.0
2014-Jul-22 08:29N 48°31' W 122°36'0 0.0
2014-Jul-22 07:29N 48°31' W 122°36'0 0.0
2014-Jul-22 06:29N 48°31' W 122°36'0 0.0
2014-Jul-22 05:29N 48°31' W 122°36'0 0.0
2014-Jul-22 04:29N 48°31' W 122°36'0 0.0
2014-Jul-22 03:29N 48°31' W 122°36'0 0.0
2014-Jul-22 02:32N 48°31' W 122°36'3 2.7
2014-Jul-22 01:33N 48°31' W 122°40'7 6.2
2014-Jul-22 00:28N 48°25' W 122°36'9 9.0
2014-Jul-21 23:26N 48°16' W 122°32'10 8.4
2014-Jul-21 22:11N 48°06' W 122°27'6 9.5
2014-Jul-21 21:32N 48°02' W 122°20'4 8.9
2014-Jul-21 21:07N 47°60' W 122°16'2 3.0
2014-Jul-21 20:34N 48°00' W 122°13'0 0.0
2014-Jul-21 20:18N 48°00' W 122°13'4 5.4
2014-Jul-21 19:32N 48°01' W 122°19'0 0.1
2014-Jul-21 19:05N 48°01' W 122°19'0 0.9
2014-Jul-21 18:33N 48°01' W 122°19'4 3.6
2014-Jul-21 17:33N 48°00' W 122°13'4 4.0
2014-Jul-21 16:32N 48°01' W 122°19'4 4.3
2014-Jul-21 15:33N 47°59' W 122°14'1 0.8
2014-Jul-21 14:32N 48°00' W 122°13'0 0.0
2014-Jul-21 13:29N 48°00' W 122°13'0 0.0
2014-Jul-21 12:32N 48°00' W 122°13'0 0.0
2014-Jul-21 11:29N 48°00' W 122°13'0 0.0
2014-Jul-21 10:29N 48°00' W 122°13'0 0.0
2014-Jul-21 09:32N 48°00' W 122°13'0 0.0
2014-Jul-21 08:29N 48°00' W 122°13'0 0.0
2014-Jul-21 07:26N 48°00' W 122°13'0 0.0
2014-Jul-21 06:32N 48°00' W 122°13'0 0.0
2014-Jul-21 05:32N 48°00' W 122°13'0 0.0
2014-Jul-21 04:32N 48°00' W 122°13'0 0.0
2014-Jul-21 03:29N 48°00' W 122°13'0 0.0
2014-Jul-21 02:32N 48°00' W 122°13'0 0.0
2014-Jul-21 01:29N 48°00' W 122°13'0 0.0
2014-Jul-21 00:29N 48°00' W 122°13'0 0.0
2014-Jul-20 23:32N 48°00' W 122°13'0 0.0
2014-Jul-20 22:32N 48°00' W 122°13'0 0.0
2014-Jul-20 21:32N 48°00' W 122°13'0 0.0
2014-Jul-20 20:32N 48°00' W 122°13'0 0.0
2014-Jul-20 19:32N 48°00' W 122°13'0 0.0
2014-Jul-20 18:32N 48°00' W 122°13'0 0.0
2014-Jul-20 17:32N 48°00' W 122°13'0 0.0
2014-Jul-20 16:32N 48°00' W 122°13'0 0.0
2014-Jul-20 15:32N 48°00' W 122°13'0 0.0
2014-Jul-20 14:26N 48°00' W 122°13'0 0.0
2014-Jul-20 13:32N 48°00' W 122°13'0 0.0
2014-Jul-20 12:32N 48°00' W 122°13'0 0.0
2014-Jul-20 11:29N 48°00' W 122°13'0 0.0
2014-Jul-20 10:29N 48°00' W 122°13'0 0.0
2014-Jul-20 09:32N 48°00' W 122°13'0 0.0
2014-Jul-20 08:29N 48°00' W 122°13'0 0.0
2014-Jul-20 07:32N 48°00' W 122°13'0 0.0
2014-Jul-20 06:32N 48°00' W 122°13'0 0.0
2014-Jul-20 05:32N 48°00' W 122°13'0 0.0
2014-Jul-20 04:32N 48°00' W 122°13'0 0.0
2014-Jul-20 03:29N 48°00' W 122°13'0 0.0
2014-Jul-20 02:32N 48°00' W 122°13'0 0.0
2014-Jul-20 01:29N 48°00' W 122°13'0 0.0
2014-Jul-20 00:29N 48°00' W 122°13'0 0.0
2014-Jul-19 23:32N 48°00' W 122°13'0 0.0
2014-Jul-19 22:29N 48°00' W 122°13'0 0.0
2014-Jul-19 21:32N 48°00' W 122°13'0 0.0
2014-Jul-19 20:29N 48°00' W 122°13'0 0.0
2014-Jul-19 19:26N 48°00' W 122°13'0 0.0
2014-Jul-19 18:32N 48°00' W 122°13'0 0.0
2014-Jul-19 17:32N 48°00' W 122°13'0 0.0
2014-Jul-19 16:32N 48°00' W 122°13'0 0.0
2014-Jul-19 15:32N 48°00' W 122°13'0 0.0
2014-Jul-19 14:32N 48°00' W 122°13'0 0.0
2014-Jul-19 13:29N 48°00' W 122°13'0 0.0
2014-Jul-19 12:29N 48°00' W 122°13'0 0.0
2014-Jul-19 11:29N 48°00' W 122°13'0 0.0
2014-Jul-19 10:32N 48°00' W 122°13'0 0.0
2014-Jul-19 09:32N 48°00' W 122°13'0 0.0
2014-Jul-19 08:32N 48°00' W 122°13'0 0.0
2014-Jul-19 07:32N 48°00' W 122°13'0 0.0
2014-Jul-19 06:32N 48°00' W 122°13'0 0.0
2014-Jul-19 05:32N 48°00' W 122°13'0 0.0
2014-Jul-19 04:32N 48°00' W 122°13'0 0.0
2014-Jul-19 03:32N 48°00' W 122°13'0 0.0
2014-Jul-19 02:32N 48°00' W 122°13'0 0.1
2014-Jul-19 01:34N 48°00' W 122°13'4 4.1
2014-Jul-19 00:34N 48°01' W 122°19'3 3.0
2014-Jul-18 23:34N 47°60' W 122°16'2 1.7
2014-Jul-18 22:34N 48°00' W 122°13'0 0.4
2014-Jul-18 21:33N 47°60' W 122°13'4 4.1
2014-Jul-18 20:33N 48°01' W 122°19'0 0.5
2014-Jul-18 19:34N 48°01' W 122°19'4 3.7
2014-Jul-18 18:34N 48°00' W 122°13'0 0.0
2014-Jul-18 17:34N 48°00' W 122°13'4 4.0
2014-Jul-18 16:32N 48°01' W 122°19'3 3.1
2014-Jul-18 15:34N 47°60' W 122°15'1 1.4
2014-Jul-18 14:33N 48°00' W 122°13'0 0.0
2014-Jul-18 13:33N 48°00' W 122°13'0 0.0
2014-Jul-18 12:33N 48°00' W 122°13'0 0.0
2014-Jul-18 11:33N 48°00' W 122°13'0 0.0
2014-Jul-18 10:33N 48°00' W 122°13'0 0.0
2014-Jul-18 09:33N 48°00' W 122°13'0 0.0
2014-Jul-18 08:33N 48°00' W 122°13'0 0.0
2014-Jul-18 07:27N 48°00' W 122°13'0 0.0
2014-Jul-18 06:33N 48°00' W 122°13'4 4.0
2014-Jul-18 05:33N 47°58' W 122°18'5 8.8
2014-Jul-18 04:56N 47°53' W 122°23'4 9.4
2014-Jul-18 04:33N 47°51' W 122°27'1 6.6
2014-Jul-18 04:22N 47°50' W 122°28'0 0.4
2014-Jul-18 03:33N 47°50' W 122°29'0 8.8
2014-Jul-18 03:32N 47°50' W 122°29'9 9.0
2014-Jul-18 02:33N 47°56' W 122°20'6 5.6
2014-Jul-18 01:33N 48°00' W 122°13'4 4.1
2014-Jul-18 00:33N 48°01' W 122°19'0 0.0
2014-Jul-17 23:27N 48°01' W 122°19'4 4.5
2014-Jul-17 22:33N 48°00' W 122°13'1 0.8
2014-Jul-17 21:33N 47°59' W 122°14'4 4.2
2014-Jul-17 20:33N 48°01' W 122°19'4 4.1
2014-Jul-17 19:33N 48°00' W 122°13'0 0.0
2014-Jul-17 18:33N 48°00' W 122°13'2 2.0
2014-Jul-17 17:33N 48°00' W 122°16'2 2.1
2014-Jul-17 16:29N 48°01' W 122°19'2 2.1
2014-Jul-17 15:33N 48°00' W 122°17'2 2.2
2014-Jul-17 14:32N 48°00' W 122°13'0 0.0
2014-Jul-17 13:29N 48°00' W 122°13'0 0.0
2014-Jul-17 12:32N 48°00' W 122°13'0 0.0
2014-Jul-17 11:29N 48°00' W 122°13'0 0.0
2014-Jul-17 10:32N 48°00' W 122°13'0 0.0
2014-Jul-17 09:32N 48°00' W 122°13'0 0.0
2014-Jul-17 08:23N 48°00' W 122°13'0 0.0
2014-Jul-17 07:29N 48°00' W 122°13'0 0.0
2014-Jul-17 06:32N 48°00' W 122°13'0 0.0
2014-Jul-17 05:32N 48°00' W 122°13'0 0.0
2014-Jul-17 04:32N 48°00' W 122°13'0 0.0
2014-Jul-17 03:32N 48°00' W 122°13'0 0.0
2014-Jul-17 02:32N 48°00' W 122°13'0 0.1
2014-Jul-17 01:33N 48°00' W 122°13'4 3.7
2014-Jul-17 00:27N 48°01' W 122°19'4 4.1
2014-Jul-16 23:33N 47°59' W 122°14'1 1.3
2014-Jul-16 22:33N 48°00' W 122°13'0 0.0
2014-Jul-16 21:33N 48°00' W 122°13'4 4.1
2014-Jul-16 20:33N 48°01' W 122°19'3 2.5
2014-Jul-16 19:32N 47°60' W 122°16'2 2.0
2014-Jul-16 18:33N 48°00' W 122°13'0 0.0
2014-Jul-16 17:33N 48°00' W 122°13'4 3.5
2014-Jul-16 16:33N 48°01' W 122°19'3 2.6
2014-Jul-16 15:33N 47°59' W 122°15'1 1.3
2014-Jul-16 14:28N 48°00' W 122°13'0 0.0
2014-Jul-16 13:28N 48°00' W 122°13'0 0.0
2014-Jul-16 12:28N 48°00' W 122°13'0 0.0
2014-Jul-16 11:22N 48°00' W 122°13'0 0.0
2014-Jul-16 08:22N 48°00' W 122°13'0 0.0
2014-Jul-16 07:28N 48°00' W 122°13'0 0.0
2014-Jul-16 06:28N 48°00' W 122°13'2 2.3
2014-Jul-16 05:32N 48°00' W 122°17'1110.3
2014-Jul-16 04:25N 48°07' W 122°30'8 9.6
2014-Jul-16 03:33N 48°16' W 122°32'9 6.9
2014-Jul-16 02:19N 48°24' W 122°33'5 2.7
2014-Jul-16 00:33N 48°25' W 122°40'6 5.8
2014-Jul-15 23:33N 48°31' W 122°39'2 1.7
2014-Jul-15 22:33N 48°31' W 122°36'1 0.7
2014-Jul-15 21:33N 48°31' W 122°37'1 1.3
2014-Jul-15 20:33N 48°32' W 122°39'8 8.3
2014-Jul-15 19:33N 48°36' W 122°49'0 0.0
2014-Jul-15 18:33N 48°36' W 122°49'0 0.0
2014-Jul-15 17:33N 48°36' W 122°49'0 0.0
2014-Jul-15 16:33N 48°36' W 122°49'7 6.5
2014-Jul-15 15:33N 48°32' W 122°41'3 3.3
2014-Jul-15 14:33N 48°31' W 122°36'0 0.0
2014-Jul-15 13:33N 48°31' W 122°36'0 0.0
2014-Jul-15 12:33N 48°31' W 122°36'0 0.0
2014-Jul-15 11:33N 48°31' W 122°36'0 0.0
2014-Jul-15 10:33N 48°31' W 122°36'0 0.0
2014-Jul-15 09:33N 48°31' W 122°36'0 0.0
2014-Jul-15 08:34N 48°31' W 122°36'0 0.0
2014-Jul-15 07:34N 48°31' W 122°36'0 0.0
2014-Jul-15 06:33N 48°31' W 122°36'0 0.0
2014-Jul-15 05:34N 48°31' W 122°36'0 0.0
2014-Jul-15 04:33N 48°31' W 122°36'0 0.0
2014-Jul-15 03:33N 48°31' W 122°36'0 0.0
2014-Jul-15 02:33N 48°31' W 122°36'0 0.0
2014-Jul-15 01:33N 48°31' W 122°36'7 7.3
2014-Jul-15 00:33N 48°31' W 122°47'0 0.1
2014-Jul-14 23:34N 48°31' W 122°47'0 0.0
2014-Jul-14 22:33N 48°31' W 122°47'5 4.9
2014-Jul-14 21:33N 48°31' W 122°40'3 2.6
2014-Jul-14 20:33N 48°31' W 122°36'0 0.0
2014-Jul-14 19:34N 48°31' W 122°36'7 7.2
2014-Jul-14 18:34N 48°34' W 122°46'3 2.7
2014-Jul-14 17:34N 48°36' W 122°49'0 0.0
2014-Jul-14 16:33N 48°36' W 122°49'2 1.8
2014-Jul-14 15:33N 48°35' W 122°47'8 7.6
2014-Jul-14 14:33N 48°31' W 122°37'0 0.4
2014-Jul-14 13:32N 48°31' W 122°36'0 0.0
2014-Jul-14 12:32N 48°31' W 122°36'  

Dump ship's entire track history